Time;durP1;ratioP1;P1;durP2;ratioP2;P2;SDS_P1;SDS_P2;PMS_P1;PMS_P2;Temp;Humidity;BMP_temperature;BMP_pressure;BME280_temperature;BME280_humidity;BME280_pressure;Samples;Min_cycle;Max_cycle;Signal;HPM_P1;HPM_P2
2021/10/19 00:00:09;;;;;;;88.40;23.73;;;;;;;;;;5096972;28;20525;-93
2021/10/19 00:02:36;;;;;;;94.50;21.47;;;;;;;;;;5079992;28;20466;-93
2021/10/19 00:05:02;;;;;;;83.30;22.10;;;;;;;;;;5083719;28;20471;-92
2021/10/19 00:07:29;;;;;;;85.17;22.57;;;;;;;;;;5101025;28;20452;-93
2021/10/19 00:09:55;;;;;;;90.37;24.67;;;;;;;;;;5100664;28;20496;-92
2021/10/19 00:12:22;;;;;;;88.43;24.50;;;;;;;;;;5100897;28;20533;-94
2021/10/19 00:14:48;;;;;;;87.87;24.47;;;;;;;;;;5100402;28;20456;-95
2021/10/19 00:17:16;;;;;;;92.80;26.90;;;;;;;;;;5100209;28;20515;-93
2021/10/19 00:19:43;;;;;;;88.60;25.00;;;;;;;;;;5101746;28;20533;-94
2021/10/19 00:22:10;;;;;;;87.63;24.23;;;;;;;;;;5085807;28;20446;-94
2021/10/19 00:24:37;;;;;;;89.23;23.60;;;;;;;;;;5085694;28;20448;-94
2021/10/19 00:27:05;;;;;;;89.30;24.87;;;;;;;;;;5104794;28;20436;-94
2021/10/19 00:29:32;;;;;;;86.37;23.90;;;;;;;;;;5104962;28;20474;-93
2021/10/19 00:31:58;;;;;;;88.90;25.10;;;;;;;;;;5103285;28;21156;-94
2021/10/19 00:34:26;;;;;;;92.50;24.97;;;;;;;;;;5104437;28;20454;-93
2021/10/19 00:36:53;;;;;;;88.60;24.03;;;;;;;;;;5105466;28;20435;-92
2021/10/19 00:39:19;;;;;;;89.57;25.13;;;;;;;;;;5105515;28;20445;-93
2021/10/19 00:41:46;;;;;;;87.17;24.40;;;;;;;;;;5104668;28;20494;-93
2021/10/19 00:44:12;;;;;;;94.83;26.00;;;;;;;;;;5105354;28;20505;-94
2021/10/19 00:46:40;;;;;;;90.20;25.17;;;;;;;;;;5105316;28;20472;-93
2021/10/19 00:49:07;;;;;;;93.87;26.83;;;;;;;;;;5105501;28;20466;-93
2021/10/19 00:51:35;;;;;;;92.37;27.37;;;;;;;;;;5105295;28;20440;-93
2021/10/19 00:54:01;;;;;;;94.10;29.47;;;;;;;;;;5105482;28;20444;-94
2021/10/19 00:56:28;;;;;;;89.53;25.20;;;;;;;;;;5104910;28;20447;-92
2021/10/19 00:58:54;;;;;;;94.60;26.80;;;;;;;;;;5104922;28;20445;-93
2021/10/19 01:01:21;;;;;;;93.00;26.47;;;;;;;;;;5105267;28;20433;-94
2021/10/19 01:03:47;;;;;;;88.17;23.10;;;;;;;;;;5105604;28;21034;-93
2021/10/19 01:06:14;;;;;;;86.50;24.50;;;;;;;;;;5105179;28;20471;-94
2021/10/19 01:08:42;;;;;;;88.27;23.90;;;;;;;;;;5105474;28;20505;-93
2021/10/19 01:11:09;;;;;;;86.70;24.17;;;;;;;;;;5104067;28;20445;-92
2021/10/19 01:13:36;;;;;;;85.10;22.80;;;;;;;;;;5105014;28;20495;-93
2021/10/19 01:16:03;;;;;;;84.70;23.30;;;;;;;;;;5104703;28;20452;-93
2021/10/19 01:18:29;;;;;;;88.90;23.70;;;;;;;;;;5104957;28;20928;-93
2021/10/19 01:20:57;;;;;;;86.80;24.00;;;;;;;;;;5104048;28;20441;-94
2021/10/19 01:23:24;;;;;;;86.90;24.77;;;;;;;;;;5104339;28;20453;-93
2021/10/19 01:25:50;;;;;;;87.77;23.97;;;;;;;;;;5104221;28;20494;-93
2021/10/19 01:28:18;;;;;;;86.27;23.87;;;;;;;;;;5104528;28;20495;-94
2021/10/19 01:30:46;;;;;;;86.97;23.00;;;;;;;;;;5104008;28;20441;-94
2021/10/19 01:33:13;;;;;;;85.37;22.70;;;;;;;;;;5103670;28;20539;-94
2021/10/19 01:35:40;;;;;;;96.77;25.37;;;;;;;;;;5102684;28;20498;-93
2021/10/19 01:38:11;;;;;;;89.93;25.00;;;;;;;;;;5102660;28;20475;-93
2021/10/19 01:40:38;;;;;;;90.80;25.70;;;;;;;;;;5104687;28;20445;-94
2021/10/19 01:43:08;;;;;;;96.33;27.47;;;;;;;;;;5105157;28;20518;-93
2021/10/19 01:45:35;;;;;;;90.17;27.13;;;;;;;;;;5104326;28;20494;-93
2021/10/19 01:48:01;;;;;;;91.90;27.43;;;;;;;;;;5103889;28;20457;-93
2021/10/19 01:50:28;;;;;;;91.60;27.10;;;;;;;;;;5105157;28;20477;-94
2021/10/19 01:52:54;;;;;;;90.87;27.30;;;;;;;;;;5104765;28;20487;-94
2021/10/19 01:55:22;;;;;;;91.40;28.33;;;;;;;;;;5103221;28;20793;-93
2021/10/19 01:57:49;;;;;;;94.70;29.30;;;;;;;;;;5102371;28;20941;-94
2021/10/19 02:00:15;;;;;;;93.93;28.20;;;;;;;;;;5103066;28;20448;-94
2021/10/19 02:02:42;;;;;;;93.97;28.37;;;;;;;;;;5102330;28;20863;-93
2021/10/19 02:05:09;;;;;;;88.97;26.47;;;;;;;;;;5103276;28;20482;-94
2021/10/19 02:07:36;;;;;;;94.47;27.23;;;;;;;;;;5102955;28;20447;-96
2021/10/19 02:10:02;;;;;;;94.00;28.50;;;;;;;;;;5102748;28;20478;-94
2021/10/19 02:12:30;;;;;;;95.10;29.50;;;;;;;;;;5101909;28;20485;-94
2021/10/19 02:14:56;;;;;;;92.87;28.27;;;;;;;;;;5102503;28;20464;-94
2021/10/19 02:17:23;;;;;;;93.20;28.57;;;;;;;;;;5101824;28;20452;-93
2021/10/19 02:19:50;;;;;;;90.60;27.17;;;;;;;;;;5082960;28;20443;-93
2021/10/19 02:22:16;;;;;;;90.77;27.73;;;;;;;;;;5084108;28;20472;-93
2021/10/19 02:24:43;;;;;;;103.53;27.80;;;;;;;;;;5082666;28;20447;-94
2021/10/19 02:27:09;;;;;;;96.20;28.03;;;;;;;;;;5081708;28;20445;-93
2021/10/19 02:29:37;;;;;;;88.67;27.00;;;;;;;;;;5082373;28;20490;-93
2021/10/19 02:32:04;;;;;;;94.47;26.57;;;;;;;;;;5082120;28;20451;-93
2021/10/19 02:34:31;;;;;;;90.07;25.80;;;;;;;;;;5083144;28;20469;-93
2021/10/19 02:36:57;;;;;;;89.37;26.57;;;;;;;;;;5083856;28;20508;-92
2021/10/19 02:39:24;;;;;;;92.80;28.40;;;;;;;;;;5084902;28;20460;-92
2021/10/19 02:41:51;;;;;;;95.80;28.37;;;;;;;;;;5091664;28;20471;-94
2021/10/19 02:44:17;;;;;;;93.87;27.27;;;;;;;;;;5081295;28;20471;-92
2021/10/19 02:46:45;;;;;;;94.57;25.63;;;;;;;;;;5082437;28;20474;-94
2021/10/19 02:49:11;;;;;;;89.77;26.90;;;;;;;;;;5082075;28;20450;-94
2021/10/19 02:51:38;;;;;;;90.17;24.70;;;;;;;;;;5079841;28;20434;-94
2021/10/19 02:54:04;;;;;;;88.70;26.53;;;;;;;;;;5080504;28;21020;-95
2021/10/19 02:56:31;;;;;;;91.27;25.90;;;;;;;;;;5082383;28;20446;-93
2021/10/19 02:58:57;;;;;;;88.67;26.10;;;;;;;;;;5082651;28;20496;-94
2021/10/19 03:01:24;;;;;;;91.33;27.70;;;;;;;;;;5082565;28;20454;-94
2021/10/19 03:03:52;;;;;;;90.47;26.53;;;;;;;;;;5082757;28;20485;-94
2021/10/19 03:06:18;;;;;;;92.27;27.37;;;;;;;;;;5080740;28;20963;-95
2021/10/19 03:08:45;;;;;;;91.00;27.80;;;;;;;;;;5080565;28;20451;-93
2021/10/19 03:11:11;;;;;;;89.97;26.30;;;;;;;;;;5083371;28;20453;-94
2021/10/19 03:13:37;;;;;;;94.80;28.50;;;;;;;;;;5083092;28;20500;-94
2021/10/19 03:16:04;;;;;;;94.90;29.10;;;;;;;;;;5082931;28;20457;-94
2021/10/19 03:18:31;;;;;;;94.60;28.93;;;;;;;;;;5092529;28;20480;-93
2021/10/19 03:20:59;;;;;;;92.93;27.47;;;;;;;;;;5101585;28;20450;-93
2021/10/19 03:23:25;;;;;;;95.10;30.77;;;;;;;;;;5101068;28;20477;-94
2021/10/19 03:25:52;;;;;;;99.80;30.70;;;;;;;;;;5103078;28;20451;-95
2021/10/19 03:28:18;;;;;;;101.93;32.00;;;;;;;;;;5102692;28;20448;-93
2021/10/19 03:30:45;;;;;;;96.10;30.80;;;;;;;;;;5101452;28;20470;-93
2021/10/19 03:33:11;;;;;;;99.50;31.93;;;;;;;;;;5100954;28;20527;-93
2021/10/19 03:35:38;;;;;;;107.43;31.67;;;;;;;;;;5102080;28;20444;-93
2021/10/19 03:38:06;;;;;;;100.80;31.83;;;;;;;;;;5101930;28;21001;-93
2021/10/19 03:40:32;;;;;;;97.20;32.37;;;;;;;;;;5102577;28;20478;-95
2021/10/19 03:42:59;;;;;;;100.27;32.97;;;;;;;;;;5102883;28;20798;-95
2021/10/19 03:45:25;;;;;;;101.60;32.27;;;;;;;;;;5102612;28;20509;-93
2021/10/19 03:47:51;;;;;;;102.00;35.70;;;;;;;;;;5102053;28;20452;-94
2021/10/19 03:50:18;;;;;;;94.10;29.80;;;;;;;;;;5101003;28;20448;-94
2021/10/19 03:52:44;;;;;;;95.67;29.93;;;;;;;;;;5099823;28;20472;-94
2021/10/19 03:55:12;;;;;;;98.27;31.80;;;;;;;;;;5102011;28;20481;-95
2021/10/19 03:57:39;;;;;;;94.97;29.37;;;;;;;;;;5105940;28;20448;-96
2021/10/19 04:00:06;;;;;;;90.90;28.80;;;;;;;;;;5105601;28;20444;-93
2021/10/19 04:02:33;;;;;;;91.73;28.67;;;;;;;;;;5105521;28;20482;-95
2021/10/19 04:04:59;;;;;;;100.87;30.60;;;;;;;;;;5105217;28;20860;-95
2021/10/19 04:07:26;;;;;;;95.07;29.80;;;;;;;;;;5104657;28;20452;-95
2021/10/19 04:09:52;;;;;;;99.57;31.43;;;;;;;;;;5105961;28;20449;-94
2021/10/19 04:12:20;;;;;;;95.07;30.27;;;;;;;;;;5106377;28;20469;-94
2021/10/19 04:14:46;;;;;;;96.63;30.97;;;;;;;;;;5105813;28;20432;-94
2021/10/19 04:17:16;;;;;;;98.20;30.37;;;;;;;;;;5104819;28;20947;-95
2021/10/19 04:19:42;;;;;;;91.00;28.90;;;;;;;;;;5105311;28;20480;-94
2021/10/19 04:22:09;;;;;;;95.40;29.20;;;;;;;;;;5106607;28;20470;-95
2021/10/19 04:24:35;;;;;;;95.17;29.13;;;;;;;;;;5105868;28;20483;-93
2021/10/19 04:27:01;;;;;;;96.03;29.97;;;;;;;;;;5106452;28;20448;-94
2021/10/19 04:29:29;;;;;;;95.17;29.53;;;;;;;;;;5105536;28;20951;-95
2021/10/19 04:31:56;;;;;;;100.40;30.10;;;;;;;;;;5103269;28;20842;-94
2021/10/19 04:34:22;;;;;;;96.37;29.20;;;;;;;;;;5103576;28;20548;-95
2021/10/19 04:36:49;;;;;;;97.33;29.90;;;;;;;;;;5104539;28;20444;-94
2021/10/19 04:39:16;;;;;;;106.23;33.50;;;;;;;;;;5105926;28;20873;-94
2021/10/19 04:41:44;;;;;;;98.73;31.03;;;;;;;;;;5105295;28;20448;-94
2021/10/19 04:44:11;;;;;;;99.97;30.83;;;;;;;;;;5106101;28;20448;-94
2021/10/19 04:46:40;;;;;;;92.67;28.70;;;;;;;;;;5105860;28;20470;-95
2021/10/19 04:49:07;;;;;;;95.90;28.60;;;;;;;;;;5105764;28;20658;-95
2021/10/19 04:51:33;;;;;;;103.27;32.03;;;;;;;;;;5104855;28;20841;-94
2021/10/19 04:53:59;;;;;;;101.07;31.53;;;;;;;;;;5084822;28;20492;-94
2021/10/19 04:56:26;;;;;;;103.17;31.27;;;;;;;;;;5085202;28;20495;-93
2021/10/19 04:58:53;;;;;;;105.53;31.50;;;;;;;;;;5104051;28;20448;-95
2021/10/19 05:01:19;;;;;;;102.37;31.17;;;;;;;;;;5104905;28;20517;-93
2021/10/19 05:03:47;;;;;;;98.33;29.17;;;;;;;;;;5105110;28;20514;-94
2021/10/19 05:06:14;;;;;;;102.83;32.77;;;;;;;;;;5102722;28;20455;-94
2021/10/19 05:08:40;;;;;;;95.30;31.13;;;;;;;;;;5101373;28;20959;-94
2021/10/19 05:11:07;;;;;;;102.23;30.53;;;;;;;;;;5105142;28;20452;-95
2021/10/19 05:13:33;;;;;;;98.10;30.60;;;;;;;;;;5105025;28;20484;-95
2021/10/19 05:16:00;;;;;;;93.77;28.30;;;;;;;;;;5103886;28;20448;-94
2021/10/19 05:18:26;;;;;;;99.10;29.23;;;;;;;;;;5103223;28;20475;-95
2021/10/19 05:20:54;;;;;;;99.43;31.87;;;;;;;;;;5104678;28;20440;-94
2021/10/19 05:23:21;;;;;;;105.63;32.10;;;;;;;;;;5104574;28;20444;-94
2021/10/19 05:25:47;;;;;;;99.87;31.87;;;;;;;;;;5104324;28;20470;-94
2021/10/19 05:28:14;;;;;;;97.23;29.70;;;;;;;;;;5104111;28;20452;-94
2021/10/19 05:30:40;;;;;;;98.27;32.03;;;;;;;;;;5104395;28;20440;-95
2021/10/19 05:33:07;;;;;;;97.17;29.87;;;;;;;;;;5104025;28;20545;-95
2021/10/19 05:35:34;;;;;;;100.97;32.33;;;;;;;;;;5104860;28;20536;-95
2021/10/19 05:38:02;;;;;;;103.47;32.20;;;;;;;;;;5103812;28;20486;-93
2021/10/19 05:40:28;;;;;;;102.97;33.40;;;;;;;;;;5101136;28;20448;-94
2021/10/19 05:42:55;;;;;;;101.83;33.17;;;;;;;;;;5101954;28;20470;-95
2021/10/19 05:45:21;;;;;;;108.10;34.53;;;;;;;;;;5100530;28;20440;-95
2021/10/19 05:47:48;;;;;;;103.17;34.80;;;;;;;;;;5100856;28;20441;-95
2021/10/19 05:50:15;;;;;;;105.80;34.07;;;;;;;;;;5104002;28;20448;-93
2021/10/19 05:52:41;;;;;;;109.03;35.53;;;;;;;;;;5104573;28;20796;-95
2021/10/19 05:55:10;;;;;;;109.90;36.40;;;;;;;;;;5103973;28;20492;-94
2021/10/19 05:57:38;;;;;;;101.57;34.33;;;;;;;;;;5104104;28;20445;-95
2021/10/19 06:00:05;;;;;;;105.37;33.43;;;;;;;;;;5103112;28;20452;-93
2021/10/19 06:02:31;;;;;;;97.87;30.33;;;;;;;;;;5103770;28;20806;-94
2021/10/19 06:04:58;;;;;;;97.93;30.10;;;;;;;;;;5102652;28;20448;-94
2021/10/19 06:07:24;;;;;;;98.80;31.60;;;;;;;;;;5093878;28;20517;-94
2021/10/19 06:09:51;;;;;;;96.30;30.73;;;;;;;;;;5081771;28;20449;-94
2021/10/19 06:12:19;;;;;;;97.80;32.27;;;;;;;;;;5084344;28;20438;-94
2021/10/19 06:14:45;;;;;;;100.00;32.60;;;;;;;;;;5103164;28;20488;-94
2021/10/19 06:17:12;;;;;;;101.30;34.53;;;;;;;;;;5103055;28;20891;-93
2021/10/19 06:19:38;;;;;;;98.00;32.90;;;;;;;;;;5102995;28;20464;-94
2021/10/19 06:22:05;;;;;;;110.87;35.17;;;;;;;;;;5100509;28;20440;-94
2021/10/19 06:24:31;;;;;;;100.40;33.47;;;;;;;;;;5101402;28;20440;-94
2021/10/19 06:26:58;;;;;;;101.03;32.87;;;;;;;;;;5103494;28;20501;-95
2021/10/19 06:29:27;;;;;;;98.20;32.03;;;;;;;;;;5102688;28;20448;-94
2021/10/19 06:31:53;;;;;;;96.10;31.67;;;;;;;;;;5102108;28;20448;-94
2021/10/19 06:34:19;;;;;;;97.87;30.00;;;;;;;;;;5102200;28;20483;-93
2021/10/19 06:36:46;;;;;;;100.07;31.57;;;;;;;;;;5102761;28;20470;-95
2021/10/19 06:39:12;;;;;;;93.90;29.90;;;;;;;;;;5103047;28;20445;-94
2021/10/19 06:41:39;;;;;;;94.40;28.73;;;;;;;;;;5102696;28;20476;-94
2021/10/19 06:44:05;;;;;;;92.83;28.50;;;;;;;;;;5102415;28;20441;-95
2021/10/19 06:46:33;;;;;;;89.13;26.67;;;;;;;;;;5102798;28;20445;-94
2021/10/19 06:49:00;;;;;;;90.67;27.20;;;;;;;;;;5100318;28;20461;-92
2021/10/19 06:51:26;;;;;;;94.07;27.13;;;;;;;;;;5083756;28;20473;-94
2021/10/19 06:53:53;;;;;;;93.73;26.27;;;;;;;;;;5094387;28;20486;-93
2021/10/19 06:56:19;;;;;;;92.93;27.17;;;;;;;;;;5100371;28;21182;-92
2021/10/19 06:58:48;;;;;;;97.10;27.90;;;;;;;;;;5100025;28;20511;-96
2021/10/19 07:01:16;;;;;;;95.10;27.03;;;;;;;;;;5099930;28;20461;-92
2021/10/19 07:03:44;;;;;;;89.77;25.27;;;;;;;;;;5095154;28;20474;-93
2021/10/19 07:06:11;;;;;;;91.00;24.53;;;;;;;;;;5100479;28;21025;-94
2021/10/19 07:08:38;;;;;;;90.17;25.50;;;;;;;;;;5100564;28;20474;-93
2021/10/19 07:11:05;;;;;;;89.40;25.00;;;;;;;;;;5101222;28;20450;-94
2021/10/19 07:13:31;;;;;;;89.23;25.17;;;;;;;;;;5100506;28;20449;-92
2021/10/19 07:15:58;;;;;;;91.27;25.40;;;;;;;;;;5101100;28;20487;-95
2021/10/19 07:18:25;;;;;;;88.57;24.90;;;;;;;;;;5090623;28;21085;-94
2021/10/19 07:20:53;;;;;;;89.10;24.70;;;;;;;;;;5100031;28;20476;-94
2021/10/19 07:23:20;;;;;;;86.03;23.03;;;;;;;;;;5099071;28;20448;-95
2021/10/19 07:25:47;;;;;;;86.30;24.00;;;;;;;;;;5099235;28;20450;-94
2021/10/19 07:28:13;;;;;;;89.20;25.30;;;;;;;;;;5097051;28;20446;-94
2021/10/19 07:30:40;;;;;;;87.77;25.40;;;;;;;;;;5096485;28;20456;-96
2021/10/19 07:33:07;;;;;;;88.30;25.00;;;;;;;;;;5096207;28;20457;-95
2021/10/19 07:35:34;;;;;;;86.63;23.97;;;;;;;;;;5094885;28;20514;-95
2021/10/19 07:38:02;;;;;;;85.90;24.37;;;;;;;;;;5094824;28;20542;-94
2021/10/19 07:40:28;;;;;;;84.33;23.43;;;;;;;;;;5096043;28;20462;-93
2021/10/19 07:42:56;;;;;;;86.10;23.07;;;;;;;;;;5100854;28;21022;-93
2021/10/19 07:45:23;;;;;;;86.03;23.63;;;;;;;;;;5102351;28;20459;-96
2021/10/19 07:47:50;;;;;;;86.93;23.90;;;;;;;;;;5096815;28;20455;-95
2021/10/19 07:50:17;;;;;;;86.77;22.00;;;;;;;;;;5093563;28;20445;-94
2021/10/19 07:52:44;;;;;;;83.03;22.20;;;;;;;;;;5095040;28;21149;-95
2021/10/19 07:55:12;;;;;;;85.43;22.47;;;;;;;;;;5096795;28;20491;-95
2021/10/19 07:57:42;;;;;;;85.00;22.90;;;;;;;;;;5100087;28;20507;-95
2021/10/19 08:00:09;;;;;;;81.67;22.43;;;;;;;;;;5097056;28;20471;-95
2021/10/19 08:02:35;;;;;;;84.53;22.43;;;;;;;;;;5098747;28;21017;-95
2021/10/19 08:05:02;;;;;;;83.60;22.00;;;;;;;;;;5101280;28;20513;-95
2021/10/19 08:07:28;;;;;;;82.07;22.17;;;;;;;;;;5102085;28;20478;-94
2021/10/19 08:09:55;;;;;;;85.27;23.30;;;;;;;;;;5101470;28;20460;-95
2021/10/19 08:12:23;;;;;;;83.37;22.47;;;;;;;;;;5101866;28;20919;-94
2021/10/19 08:14:49;;;;;;;87.23;23.73;;;;;;;;;;5099502;28;21018;-94
2021/10/19 08:17:16;;;;;;;83.77;22.20;;;;;;;;;;5101059;28;20532;-94
2021/10/19 08:19:42;;;;;;;86.27;23.47;;;;;;;;;;5081695;28;20476;-94
2021/10/19 08:22:09;;;;;;;83.47;22.47;;;;;;;;;;5079401;28;20453;-94
2021/10/19 08:24:36;;;;;;;84.27;22.97;;;;;;;;;;5078961;28;20526;-93
2021/10/19 08:27:02;;;;;;;82.47;21.80;;;;;;;;;;5077014;28;20509;-94
2021/10/19 08:29:30;;;;;;;84.87;22.23;;;;;;;;;;5079322;28;20437;-96
2021/10/19 08:31:57;;;;;;;83.87;21.13;;;;;;;;;;5080560;28;20503;-96
2021/10/19 08:34:23;;;;;;;82.17;21.20;;;;;;;;;;5080566;28;20476;-94
2021/10/19 08:36:50;;;;;;;82.87;22.47;;;;;;;;;;5078575;28;20445;-94
2021/10/19 08:39:16;;;;;;;84.03;22.37;;;;;;;;;;5075376;28;20475;-94
2021/10/19 08:41:43;;;;;;;81.70;21.97;;;;;;;;;;5078400;28;20520;-95
2021/10/19 08:44:09;;;;;;;80.50;21.83;;;;;;;;;;5085947;28;20453;-94
2021/10/19 08:46:37;;;;;;;83.67;21.30;;;;;;;;;;5083016;28;20857;-94
2021/10/19 08:49:04;;;;;;;86.80;21.37;;;;;;;;;;5084135;28;20988;-94
2021/10/19 08:51:30;;;;;;;79.83;21.10;;;;;;;;;;5083001;28;20449;-96
2021/10/19 08:53:57;;;;;;;85.63;20.87;;;;;;;;;;5085884;28;20456;-94
2021/10/19 08:56:23;;;;;;;83.60;20.30;;;;;;;;;;5085603;28;20464;-94
2021/10/19 08:58:57;;;;;;;81.80;21.07;;;;;;;;;;5081352;28;20438;-96
2021/10/19 09:01:32;;;;;;;82.97;21.80;;;;;;;;;;5082934;28;20452;-95
2021/10/19 09:04:00;;;;;;;81.57;19.70;;;;;;;;;;5078479;28;20521;-93
2021/10/19 09:06:30;;;;;;;80.33;18.60;;;;;;;;;;5083430;28;20441;-96
2021/10/19 09:09:03;;;;;;;85.10;17.90;;;;;;;;;;5081989;28;20484;-96
2021/10/19 09:11:36;;;;;;;78.87;16.53;;;;;;;;;;5084174;28;20471;-96
2021/10/19 09:14:03;;;;;;;78.53;17.30;;;;;;;;;;5083056;28;20476;-94
2021/10/19 09:16:36;;;;;;;71.63;15.20;;;;;;;;;;5085217;28;20445;-96
2021/10/19 09:19:04;;;;;;;71.27;15.23;;;;;;;;;;5084583;28;20477;-96
2021/10/19 09:21:31;;;;;;;71.17;15.10;;;;;;;;;;5084252;28;20437;-96
2021/10/19 09:24:13;;;;;;;77.50;15.20;;;;;;;;;;5134989;22;20510;-95
2021/10/19 09:26:39;;;;;;;73.83;15.50;;;;;;;;;;5084091;28;20476;-96
2021/10/19 09:29:10;;;;;;;74.37;15.50;;;;;;;;;;5066075;28;20449;-95
2021/10/19 09:31:37;;;;;;;74.80;15.93;;;;;;;;;;5066179;28;20449;-95
2021/10/19 09:34:06;;;;;;;72.20;14.83;;;;;;;;;;5084084;28;20506;-96
2021/10/19 09:36:33;;;;;;;72.47;14.90;;;;;;;;;;5086045;28;20445;-96
2021/10/19 09:39:00;;;;;;;74.77;15.30;;;;;;;;;;5065576;28;20434;-95
2021/10/19 09:44:09;;;;;;;75.50;15.50;;;;;;;;;;5127559;22;20563;-96
2021/10/19 09:46:41;;;;;;;73.37;15.33;;;;;;;;;;5109201;28;20436;-96
2021/10/19 09:49:12;;;;;;;74.83;15.60;;;;;;;;;;5101420;28;20441;-96
2021/10/19 09:51:39;;;;;;;74.07;16.00;;;;;;;;;;5088222;28;20445;-96
2021/10/19 09:54:07;;;;;;;74.60;15.73;;;;;;;;;;5108201;28;20449;-96
2021/10/19 09:56:34;;;;;;;75.23;16.70;;;;;;;;;;5080885;28;20474;-94
2021/10/19 09:59:00;;;;;;;77.67;16.80;;;;;;;;;;5100793;28;21232;-95
2021/10/19 10:01:27;;;;;;;72.10;15.93;;;;;;;;;;5102943;28;20479;-94
2021/10/19 10:03:54;;;;;;;72.63;14.97;;;;;;;;;;5101009;28;20474;-94
2021/10/19 10:06:23;;;;;;;70.60;15.10;;;;;;;;;;5088499;28;20436;-96
2021/10/19 10:08:50;;;;;;;72.30;14.77;;;;;;;;;;5094685;28;20441;-96
2021/10/19 10:11:17;;;;;;;73.40;12.97;;;;;;;;;;5097717;28;20461;-96
2021/10/19 10:13:44;;;;;;;72.57;14.93;;;;;;;;;;5106679;28;20444;-95
2021/10/19 10:16:11;;;;;;;72.37;14.80;;;;;;;;;;5107072;28;21145;-96
2021/10/19 10:18:37;;;;;;;72.80;15.20;;;;;;;;;;5105144;28;20447;-96
2021/10/19 10:21:14;;;;;;;70.27;15.43;;;;;;;;;;5102855;28;20459;-96
2021/10/19 10:23:42;;;;;;;70.37;14.80;;;;;;;;;;5103322;28;20470;-96
2021/10/19 10:26:11;;;;;;;71.60;15.40;;;;;;;;;;5102737;28;20547;-95
2021/10/19 10:28:37;;;;;;;69.07;14.80;;;;;;;;;;5103487;28;20441;-94
2021/10/19 10:31:05;;;;;;;69.43;15.50;;;;;;;;;;5103068;28;20448;-96
2021/10/19 10:33:36;;;;;;;70.23;14.70;;;;;;;;;;5091280;28;20447;-94
2021/10/19 10:36:05;;;;;;;70.77;14.20;;;;;;;;;;5117860;28;20491;-94
2021/10/19 10:38:31;;;;;;;70.07;14.33;;;;;;;;;;5122293;28;20446;-96
2021/10/19 10:41:10;;;;;;;71.10;15.20;;;;;;;;;;5105954;28;20446;-96
2021/10/19 10:43:37;;;;;;;71.13;14.77;;;;;;;;;;5104814;28;20483;-96
2021/10/19 10:46:06;;;;;;;76.27;14.77;;;;;;;;;;5104344;28;20440;-94
2021/10/19 10:48:33;;;;;;;71.00;14.63;;;;;;;;;;5111904;28;20455;-96
2021/10/19 10:50:59;;;;;;;71.60;14.80;;;;;;;;;;5089509;28;20508;-95
2021/10/19 10:53:32;;;;;;;71.47;15.10;;;;;;;;;;5084828;28;20506;-95
2021/10/19 10:55:59;;;;;;;68.77;14.37;;;;;;;;;;5102399;28;20491;-96
2021/10/19 10:58:28;;;;;;;69.20;14.93;;;;;;;;;;5102590;28;20490;-95
2021/10/19 11:00:54;;;;;;;70.47;15.47;;;;;;;;;;5098088;28;20448;-96
2021/10/19 11:03:21;;;;;;;68.87;14.90;;;;;;;;;;5096879;28;21116;-95
2021/10/19 11:05:54;;;;;;;72.93;15.17;;;;;;;;;;5100232;28;20437;-94
2021/10/19 11:08:21;;;;;;;69.17;14.90;;;;;;;;;;5101242;28;20448;-95
2021/10/19 11:10:49;;;;;;;73.73;15.70;;;;;;;;;;5081775;28;20481;-95
2021/10/19 11:13:16;;;;;;;69.77;15.27;;;;;;;;;;5096248;28;20464;-94
2021/10/19 11:15:51;;;;;;;76.17;14.80;;;;;;;;;;5097644;28;20510;-94
2021/10/19 11:18:17;;;;;;;68.90;14.33;;;;;;;;;;5100150;28;20452;-96
2021/10/19 11:20:51;;;;;;;69.07;14.40;;;;;;;;;;5098794;28;20451;-95
2021/10/19 11:23:17;;;;;;;68.03;14.67;;;;;;;;;;5102489;28;20475;-94
2021/10/19 11:25:44;;;;;;;69.67;14.70;;;;;;;;;;5092120;28;20453;-94
2021/10/19 11:28:11;;;;;;;71.80;15.10;;;;;;;;;;5098001;28;20491;-95
2021/10/19 11:30:52;;;;;;;70.03;14.83;;;;;;;;;;5101985;28;20447;-95
2021/10/19 11:33:21;;;;;;;67.57;14.50;;;;;;;;;;5101492;28;20426;-96
2021/10/19 11:35:48;;;;;;;68.37;15.50;;;;;;;;;;5097389;28;20513;-93
2021/10/19 11:38:14;;;;;;;71.47;14.83;;;;;;;;;;5097725;28;20513;-91
2021/10/19 11:40:41;;;;;;;68.77;14.80;;;;;;;;;;5098738;28;20666;-91
2021/10/19 11:43:07;;;;;;;72.53;13.90;;;;;;;;;;5099532;28;20496;-91
2021/10/19 11:45:34;;;;;;;69.80;14.20;;;;;;;;;;5102434;28;21173;-93
2021/10/19 11:48:01;;;;;;;72.03;15.30;;;;;;;;;;5102610;28;20565;-93
2021/10/19 11:50:33;;;;;;;68.50;14.97;;;;;;;;;;5103644;28;20543;-95
2021/10/19 11:53:02;;;;;;;69.30;15.73;;;;;;;;;;5103226;28;20462;-96
2021/10/19 11:55:31;;;;;;;66.90;13.87;;;;;;;;;;5103681;28;20492;-96
2021/10/19 11:57:57;;;;;;;69.20;14.23;;;;;;;;;;5102851;28;20465;-95
2021/10/19 12:00:24;;;;;;;68.80;14.30;;;;;;;;;;5104761;28;20475;-96
2021/10/19 12:02:51;;;;;;;69.00;14.63;;;;;;;;;;5101399;28;20999;-95
2021/10/19 12:05:18;;;;;;;70.17;14.50;;;;;;;;;;5101657;28;20458;-95
2021/10/19 12:07:50;;;;;;;69.40;14.60;;;;;;;;;;5083401;28;20437;-94
2021/10/19 12:10:18;;;;;;;67.17;14.13;;;;;;;;;;5092933;28;20452;-95
2021/10/19 12:12:55;;;;;;;67.93;14.43;;;;;;;;;;5071073;28;20532;-92
2021/10/19 12:15:23;;;;;;;70.47;15.87;;;;;;;;;;5098598;28;20486;-96
2021/10/19 12:17:54;;;;;;;70.70;15.57;;;;;;;;;;5096962;28;20569;-94
2021/10/19 12:20:20;;;;;;;67.30;14.30;;;;;;;;;;5105715;28;20500;-94
2021/10/19 12:22:47;;;;;;;70.40;15.10;;;;;;;;;;5105851;28;20450;-93
2021/10/19 12:25:15;;;;;;;67.97;14.17;;;;;;;;;;5105472;28;20440;-94
2021/10/19 12:27:43;;;;;;;67.93;14.37;;;;;;;;;;5105862;28;20466;-94
2021/10/19 12:30:15;;;;;;;66.67;14.33;;;;;;;;;;5099394;28;21254;-94
2021/10/19 12:32:41;;;;;;;66.77;14.77;;;;;;;;;;5082345;28;20455;-93
2021/10/19 12:35:09;;;;;;;68.13;13.53;;;;;;;;;;5095322;28;20463;-93
2021/10/19 12:37:37;;;;;;;69.37;14.43;;;;;;;;;;5106064;28;20447;-93
2021/10/19 12:40:05;;;;;;;68.47;14.40;;;;;;;;;;5104595;28;20457;-96
2021/10/19 12:42:33;;;;;;;67.07;14.70;;;;;;;;;;5093110;28;20537;-96
2021/10/19 12:45:00;;;;;;;67.40;15.23;;;;;;;;;;5107102;28;20507;-95
2021/10/19 12:47:26;;;;;;;68.60;15.90;;;;;;;;;;5106654;28;20516;-96
2021/10/19 12:49:54;;;;;;;74.03;15.27;;;;;;;;;;5105590;28;20478;-95
2021/10/19 12:52:21;;;;;;;71.80;15.63;;;;;;;;;;5104190;28;20544;-94
2021/10/19 12:54:47;;;;;;;68.77;14.37;;;;;;;;;;5107893;28;20448;-94
2021/10/19 12:57:15;;;;;;;70.37;14.90;;;;;;;;;;5126915;28;20502;-95
2021/10/19 12:59:43;;;;;;;70.00;14.90;;;;;;;;;;5105937;28;20456;-94
2021/10/19 13:02:09;;;;;;;68.87;15.20;;;;;;;;;;5104306;28;20513;-95
2021/10/19 13:04:36;;;;;;;69.60;15.00;;;;;;;;;;5102650;28;20470;-96
2021/10/19 13:07:04;;;;;;;71.00;16.07;;;;;;;;;;5107025;28;20456;-96
2021/10/19 13:09:31;;;;;;;68.10;15.70;;;;;;;;;;5107661;28;20532;-96
2021/10/19 13:11:58;;;;;;;70.17;15.80;;;;;;;;;;5124036;28;20511;-95
2021/10/19 13:14:24;;;;;;;69.47;15.93;;;;;;;;;;5112657;28;20456;-95
2021/10/19 13:16:53;;;;;;;71.57;16.20;;;;;;;;;;5102958;28;20492;-95
2021/10/19 13:19:19;;;;;;;67.97;16.10;;;;;;;;;;5103048;28;20460;-96
2021/10/19 13:21:46;;;;;;;72.57;15.30;;;;;;;;;;5102359;28;20440;-94
2021/10/19 13:24:13;;;;;;;68.57;14.90;;;;;;;;;;5099696;28;20444;-95
2021/10/19 13:26:41;;;;;;;68.80;14.83;;;;;;;;;;5101347;28;20456;-95
2021/10/19 13:29:08;;;;;;;68.07;15.50;;;;;;;;;;5110574;28;20440;-95
2021/10/19 13:31:34;;;;;;;68.63;15.43;;;;;;;;;;5102517;28;20441;-94
2021/10/19 13:34:02;;;;;;;70.60;14.70;;;;;;;;;;5102981;28;20447;-95
2021/10/19 13:36:29;;;;;;;68.30;14.20;;;;;;;;;;5108101;28;20460;-94
2021/10/19 13:38:55;;;;;;;67.50;15.43;;;;;;;;;;5106636;28;20444;-96
2021/10/19 13:41:22;;;;;;;67.87;13.93;;;;;;;;;;5118143;28;20850;-96
2021/10/19 13:43:48;;;;;;;70.33;15.30;;;;;;;;;;5133677;27;20470;-96
2021/10/19 13:46:15;;;;;;;67.57;15.30;;;;;;;;;;5122904;28;20440;-96
2021/10/19 13:48:42;;;;;;;67.87;15.03;;;;;;;;;;5118824;28;20454;-96
2021/10/19 13:51:10;;;;;;;69.10;14.70;;;;;;;;;;5122761;28;20440;-95
2021/10/19 13:53:36;;;;;;;69.23;14.90;;;;;;;;;;5105540;28;20496;-94
2021/10/19 13:56:03;;;;;;;68.97;14.70;;;;;;;;;;5114978;28;20488;-96
2021/10/19 13:58:30;;;;;;;72.43;15.10;;;;;;;;;;5124207;28;20462;-96
2021/10/19 14:00:56;;;;;;;67.30;14.87;;;;;;;;;;5127521;27;20453;-96
2021/10/19 14:03:23;;;;;;;66.10;14.70;;;;;;;;;;5142116;27;20470;-95
2021/10/19 14:05:49;;;;;;;68.90;15.20;;;;;;;;;;5142053;27;20978;-93
2021/10/19 14:08:17;;;;;;;68.60;14.67;;;;;;;;;;5139770;27;20438;-96
2021/10/19 14:10:44;;;;;;;67.80;14.57;;;;;;;;;;5106702;28;20991;-94
2021/10/19 14:13:11;;;;;;;66.60;15.00;;;;;;;;;;5121378;28;20480;-94
2021/10/19 14:15:38;;;;;;;68.03;16.00;;;;;;;;;;5125482;27;20440;-95
2021/10/19 14:18:04;;;;;;;68.43;16.13;;;;;;;;;;5143476;27;20465;-96